sensor_id;sensor_type;location;lat;lon;timestamp;P1;durP1;ratioP1;P2;durP2;ratioP2
76021;SDS011;64718;52.124;6.226;2024-03-23T00:52:17;22.20;;;9.75;;
76021;SDS011;64718;52.124;6.226;2024-03-23T00:54:43;27.20;;;9.45;;
76021;SDS011;64718;52.124;6.226;2024-03-23T00:57:09;26.73;;;8.88;;
76021;SDS011;64718;52.124;6.226;2024-03-23T00:59:35;26.60;;;9.48;;
76021;SDS011;64718;52.124;6.226;2024-03-23T01:02:00;25.52;;;8.00;;
76021;SDS011;64718;52.124;6.226;2024-03-23T01:04:27;31.75;;;11.27;;
76021;SDS011;64718;52.124;6.226;2024-03-23T01:06:52;22.85;;;9.10;;
76021;SDS011;64718;52.124;6.226;2024-03-23T01:09:20;22.65;;;10.10;;
76021;SDS011;64718;52.124;6.226;2024-03-23T01:11:45;23.05;;;8.05;;
76021;SDS011;64718;52.124;6.226;2024-03-23T01:14:11;31.98;;;8.40;;
76021;SDS011;64718;52.124;6.226;2024-03-23T01:16:37;24.52;;;7.28;;
76021;SDS011;64718;52.124;6.226;2024-03-23T01:19:03;28.10;;;10.35;;
76021;SDS011;64718;52.124;6.226;2024-03-23T01:21:28;21.52;;;8.32;;
76021;SDS011;64718;52.124;6.226;2024-03-23T01:23:55;20.48;;;7.68;;
76021;SDS011;64718;52.124;6.226;2024-03-23T01:26:21;30.77;;;9.02;;
76021;SDS011;64718;52.124;6.226;2024-03-23T01:28:48;22.23;;;8.60;;
76021;SDS011;64718;52.124;6.226;2024-03-23T01:31:13;31.55;;;10.70;;
76021;SDS011;64718;52.124;6.226;2024-03-23T01:33:41;21.52;;;8.30;;
76021;SDS011;64718;52.124;6.226;2024-03-23T01:36:06;29.42;;;8.82;;
76021;SDS011;64718;52.124;6.226;2024-03-23T01:38:33;27.08;;;8.65;;
76021;SDS011;64718;52.124;6.226;2024-03-23T01:40:59;25.95;;;9.55;;
76021;SDS011;64718;52.124;6.226;2024-03-23T01:43:26;25.20;;;9.50;;
76021;SDS011;64718;52.124;6.226;2024-03-23T01:45:52;22.05;;;8.63;;
76021;SDS011;64718;52.124;6.226;2024-03-23T01:48:19;23.48;;;6.80;;
76021;SDS011;64718;52.124;6.226;2024-03-23T01:50:44;26.20;;;9.82;;
76021;SDS011;64718;52.124;6.226;2024-03-23T01:53:11;24.58;;;8.95;;
76021;SDS011;64718;52.124;6.226;2024-03-23T01:55:36;23.80;;;8.25;;
76021;SDS011;64718;52.124;6.226;2024-03-23T01:58:04;22.52;;;8.70;;
76021;SDS011;64718;52.124;6.226;2024-03-23T02:00:30;25.17;;;9.85;;
76021;SDS011;64718;52.124;6.226;2024-03-23T02:02:57;23.92;;;9.05;;
76021;SDS011;64718;52.124;6.226;2024-03-23T02:05:22;31.40;;;11.23;;
76021;SDS011;64718;52.124;6.226;2024-03-23T02:07:49;22.90;;;9.93;;
76021;SDS011;64718;52.124;6.226;2024-03-23T02:10:15;25.58;;;9.18;;
76021;SDS011;64718;52.124;6.226;2024-03-23T02:12:42;23.65;;;8.75;;
76021;SDS011;64718;52.124;6.226;2024-03-23T02:15:07;18.60;;;8.73;;
76021;SDS011;64718;52.124;6.226;2024-03-23T02:17:35;22.45;;;8.10;;
76021;SDS011;64718;52.124;6.226;2024-03-23T02:20:01;29.05;;;8.68;;
76021;SDS011;64718;52.124;6.226;2024-03-23T02:22:34;24.73;;;9.82;;
76021;SDS011;64718;52.124;6.226;2024-03-23T02:25:01;29.35;;;10.63;;
76021;SDS011;64718;52.124;6.226;2024-03-23T02:27:27;23.55;;;9.30;;
76021;SDS011;64718;52.124;6.226;2024-03-23T02:29:53;27.85;;;9.30;;
76021;SDS011;64718;52.124;6.226;2024-03-23T02:32:19;32.00;;;11.23;;
76021;SDS011;64718;52.124;6.226;2024-03-23T02:34:45;31.75;;;10.32;;
76021;SDS011;64718;52.124;6.226;2024-03-23T02:37:11;20.70;;;9.52;;
76021;SDS011;64718;52.124;6.226;2024-03-23T02:39:36;27.20;;;11.68;;
76021;SDS011;64718;52.124;6.226;2024-03-23T02:42:04;26.58;;;11.05;;
76021;SDS011;64718;52.124;6.226;2024-03-23T02:44:30;34.67;;;12.07;;
76021;SDS011;64718;52.124;6.226;2024-03-23T02:46:56;29.50;;;11.98;;
76021;SDS011;64718;52.124;6.226;2024-03-23T02:49:21;28.02;;;11.85;;
76021;SDS011;64718;52.124;6.226;2024-03-23T02:51:48;33.13;;;11.23;;
76021;SDS011;64718;52.124;6.226;2024-03-23T02:54:13;34.60;;;13.10;;
76021;SDS011;64718;52.124;6.226;2024-03-23T02:56:40;23.33;;;11.05;;
76021;SDS011;64718;52.124;6.226;2024-03-23T02:59:06;42.38;;;12.23;;
76021;SDS011;64718;52.124;6.226;2024-03-23T03:01:33;31.90;;;12.68;;
76021;SDS011;64718;52.124;6.226;2024-03-23T03:03:58;32.80;;;11.35;;
76021;SDS011;64718;52.124;6.226;2024-03-23T03:06:24;29.55;;;13.20;;
76021;SDS011;64718;52.124;6.226;2024-03-23T03:08:50;32.22;;;12.70;;
76021;SDS011;64718;52.124;6.226;2024-03-23T03:11:16;41.42;;;14.68;;
76021;SDS011;64718;52.124;6.226;2024-03-23T03:13:41;35.67;;;15.80;;
76021;SDS011;64718;52.124;6.226;2024-03-23T03:16:09;52.88;;;16.42;;
76021;SDS011;64718;52.124;6.226;2024-03-23T03:18:35;38.30;;;14.88;;
76021;SDS011;64718;52.124;6.226;2024-03-23T03:21:01;50.35;;;18.15;;
76021;SDS011;64718;52.124;6.226;2024-03-23T03:23:27;43.65;;;16.10;;
76021;SDS011;64718;52.124;6.226;2024-03-23T03:25:54;48.88;;;18.52;;
76021;SDS011;64718;52.124;6.226;2024-03-23T03:28:19;49.60;;;15.82;;
76021;SDS011;64718;52.124;6.226;2024-03-23T03:30:46;47.45;;;16.55;;
76021;SDS011;64718;52.124;6.226;2024-03-23T03:33:12;49.92;;;18.85;;
76021;SDS011;64718;52.124;6.226;2024-03-23T03:35:39;50.28;;;17.25;;
76021;SDS011;64718;52.124;6.226;2024-03-23T03:38:04;40.50;;;16.98;;
76021;SDS011;64718;52.124;6.226;2024-03-23T03:40:30;55.28;;;19.63;;
76021;SDS011;64718;52.124;6.226;2024-03-23T03:42:56;42.38;;;19.13;;
76021;SDS011;64718;52.124;6.226;2024-03-23T03:45:22;52.00;;;18.23;;
76021;SDS011;64718;52.124;6.226;2024-03-23T03:47:47;61.95;;;19.73;;
76021;SDS011;64718;52.124;6.226;2024-03-23T03:50:15;46.35;;;19.02;;
76021;SDS011;64718;52.124;6.226;2024-03-23T03:52:40;57.25;;;22.00;;
76021;SDS011;64718;52.124;6.226;2024-03-23T03:55:12;60.45;;;23.38;;
76021;SDS011;64718;52.124;6.226;2024-03-23T03:57:38;56.70;;;21.42;;
76021;SDS011;64718;52.124;6.226;2024-03-23T04:00:04;55.65;;;21.90;;
76021;SDS011;64718;52.124;6.226;2024-03-23T04:02:30;54.95;;;20.45;;
76021;SDS011;64718;52.124;6.226;2024-03-23T04:04:56;52.20;;;20.35;;
76021;SDS011;64718;52.124;6.226;2024-03-23T04:07:23;49.63;;;21.95;;
76021;SDS011;64718;52.124;6.226;2024-03-23T04:09:49;60.30;;;23.25;;
76021;SDS011;64718;52.124;6.226;2024-03-23T04:12:15;57.45;;;19.85;;
76021;SDS011;64718;52.124;6.226;2024-03-23T04:14:41;55.40;;;20.85;;
76021;SDS011;64718;52.124;6.226;2024-03-23T04:17:07;62.35;;;22.48;;
76021;SDS011;64718;52.124;6.226;2024-03-23T04:19:33;53.80;;;21.05;;
76021;SDS011;64718;52.124;6.226;2024-03-23T04:21:58;54.97;;;20.75;;
76021;SDS011;64718;52.124;6.226;2024-03-23T04:24:26;49.53;;;20.58;;
76021;SDS011;64718;52.124;6.226;2024-03-23T04:26:51;50.45;;;19.35;;
76021;SDS011;64718;52.124;6.226;2024-03-23T04:29:18;53.85;;;19.27;;
76021;SDS011;64718;52.124;6.226;2024-03-23T04:31:44;57.58;;;20.35;;
76021;SDS011;64718;52.124;6.226;2024-03-23T04:34:10;50.78;;;18.70;;
76021;SDS011;64718;52.124;6.226;2024-03-23T04:36:35;51.97;;;19.27;;
76021;SDS011;64718;52.124;6.226;2024-03-23T04:39:02;48.53;;;19.40;;
76021;SDS011;64718;52.124;6.226;2024-03-23T04:41:29;57.40;;;19.67;;
76021;SDS011;64718;52.124;6.226;2024-03-23T04:43:56;46.28;;;17.25;;
76021;SDS011;64718;52.124;6.226;2024-03-23T04:46:22;41.53;;;17.13;;
76021;SDS011;64718;52.124;6.226;2024-03-23T04:48:47;46.10;;;17.08;;
76021;SDS011;64718;52.124;6.226;2024-03-23T04:51:20;51.30;;;17.73;;
76021;SDS011;64718;52.124;6.226;2024-03-23T04:53:46;55.65;;;20.65;;
76021;SDS011;64718;52.124;6.226;2024-03-23T04:56:13;48.45;;;20.13;;
76021;SDS011;64718;52.124;6.226;2024-03-23T04:58:40;43.47;;;16.77;;
76021;SDS011;64718;52.124;6.226;2024-03-23T05:01:06;45.92;;;15.98;;
76021;SDS011;64718;52.124;6.226;2024-03-23T05:03:32;56.95;;;20.45;;
76021;SDS011;64718;52.124;6.226;2024-03-23T05:05:57;56.42;;;19.33;;
76021;SDS011;64718;52.124;6.226;2024-03-23T05:08:24;43.15;;;18.33;;
76021;SDS011;64718;52.124;6.226;2024-03-23T05:10:49;51.20;;;20.05;;
76021;SDS011;64718;52.124;6.226;2024-03-23T05:13:15;58.65;;;18.77;;
76021;SDS011;64718;52.124;6.226;2024-03-23T05:15:42;56.10;;;20.00;;
76021;SDS011;64718;52.124;6.226;2024-03-23T05:18:08;46.33;;;18.42;;
76021;SDS011;64718;52.124;6.226;2024-03-23T05:20:34;53.08;;;18.98;;
76021;SDS011;64718;52.124;6.226;2024-03-23T05:23:00;49.22;;;19.25;;
76021;SDS011;64718;52.124;6.226;2024-03-23T05:25:26;42.65;;;16.30;;
76021;SDS011;64718;52.124;6.226;2024-03-23T05:27:52;49.92;;;18.88;;
76021;SDS011;64718;52.124;6.226;2024-03-23T05:30:17;45.30;;;19.40;;
76021;SDS011;64718;52.124;6.226;2024-03-23T05:32:45;45.63;;;16.65;;
76021;SDS011;64718;52.124;6.226;2024-03-23T05:35:10;44.08;;;17.77;;
76021;SDS011;64718;52.124;6.226;2024-03-23T05:37:37;49.85;;;13.85;;
76021;SDS011;64718;52.124;6.226;2024-03-23T05:40:02;44.00;;;16.45;;
76021;SDS011;64718;52.124;6.226;2024-03-23T05:42:29;50.22;;;14.80;;
76021;SDS011;64718;52.124;6.226;2024-03-23T05:44:55;36.85;;;13.95;;
76021;SDS011;64718;52.124;6.226;2024-03-23T05:47:21;39.40;;;15.32;;
76021;SDS011;64718;52.124;6.226;2024-03-23T05:49:48;38.90;;;14.77;;
76021;SDS011;64718;52.124;6.226;2024-03-23T05:52:15;36.38;;;13.13;;
76021;SDS011;64718;52.124;6.226;2024-03-23T05:54:41;51.63;;;18.58;;
76021;SDS011;64718;52.124;6.226;2024-03-23T05:57:08;41.63;;;13.88;;
76021;SDS011;64718;52.124;6.226;2024-03-23T05:59:33;36.60;;;14.00;;
76021;SDS011;64718;52.124;6.226;2024-03-23T06:02:00;31.80;;;14.05;;
76021;SDS011;64718;52.124;6.226;2024-03-23T06:04:25;33.13;;;14.38;;
76021;SDS011;64718;52.124;6.226;2024-03-23T06:06:53;32.92;;;13.23;;
76021;SDS011;64718;52.124;6.226;2024-03-23T06:09:18;27.77;;;11.55;;
76021;SDS011;64718;52.124;6.226;2024-03-23T06:11:45;22.80;;;10.07;;
76021;SDS011;64718;52.124;6.226;2024-03-23T06:14:10;26.55;;;10.40;;
76021;SDS011;64718;52.124;6.226;2024-03-23T06:16:37;23.67;;;10.48;;
76021;SDS011;64718;52.124;6.226;2024-03-23T06:19:02;18.63;;;9.05;;
76021;SDS011;64718;52.124;6.226;2024-03-23T06:21:31;20.23;;;8.27;;
76021;SDS011;64718;52.124;6.226;2024-03-23T06:23:58;13.73;;;7.13;;
76021;SDS011;64718;52.124;6.226;2024-03-23T06:26:24;16.77;;;7.43;;
76021;SDS011;64718;52.124;6.226;2024-03-23T06:28:50;15.52;;;6.35;;
76021;SDS011;64718;52.124;6.226;2024-03-23T06:31:16;14.02;;;6.80;;
76021;SDS011;64718;52.124;6.226;2024-03-23T06:33:41;17.15;;;6.03;;
76021;SDS011;64718;52.124;6.226;2024-03-23T06:36:09;11.15;;;4.22;;
76021;SDS011;64718;52.124;6.226;2024-03-23T06:38:34;7.60;;;4.03;;
76021;SDS011;64718;52.124;6.226;2024-03-23T06:41:03;10.80;;;4.60;;
76021;SDS011;64718;52.124;6.226;2024-03-23T06:43:29;9.57;;;3.17;;
76021;SDS011;64718;52.124;6.226;2024-03-23T06:45:55;10.65;;;4.03;;
76021;SDS011;64718;52.124;6.226;2024-03-23T06:48:21;6.40;;;2.88;;
76021;SDS011;64718;52.124;6.226;2024-03-23T06:50:47;9.45;;;3.05;;
76021;SDS011;64718;52.124;6.226;2024-03-23T06:53:13;7.63;;;2.95;;
76021;SDS011;64718;52.124;6.226;2024-03-23T06:55:39;4.03;;;2.78;;
76021;SDS011;64718;52.124;6.226;2024-03-23T06:58:06;8.98;;;2.72;;
76021;SDS011;64718;52.124;6.226;2024-03-23T07:00:33;6.88;;;3.28;;
76021;SDS011;64718;52.124;6.226;2024-03-23T07:02:59;5.55;;;2.83;;
76021;SDS011;64718;52.124;6.226;2024-03-23T07:05:25;6.20;;;3.78;;
76021;SDS011;64718;52.124;6.226;2024-03-23T07:07:50;12.75;;;3.58;;
76021;SDS011;64718;52.124;6.226;2024-03-23T07:10:17;6.20;;;2.90;;
76021;SDS011;64718;52.124;6.226;2024-03-23T07:12:42;11.05;;;3.00;;
76021;SDS011;64718;52.124;6.226;2024-03-23T07:15:10;5.18;;;2.67;;
76021;SDS011;64718;52.124;6.226;2024-03-23T07:17:36;7.97;;;3.35;;
76021;SDS011;64718;52.124;6.226;2024-03-23T07:20:02;9.07;;;3.08;;
76021;SDS011;64718;52.124;6.226;2024-03-23T07:22:29;7.47;;;3.28;;
76021;SDS011;64718;52.124;6.226;2024-03-23T07:24:55;8.35;;;2.65;;
76021;SDS011;64718;52.124;6.226;2024-03-23T07:27:20;6.18;;;2.40;;
76021;SDS011;64718;52.124;6.226;2024-03-23T07:29:48;7.97;;;2.60;;
76021;SDS011;64718;52.124;6.226;2024-03-23T07:32:15;9.02;;;2.92;;
76021;SDS011;64718;52.124;6.226;2024-03-23T07:34:42;6.15;;;2.15;;
76021;SDS011;64718;52.124;6.226;2024-03-23T07:37:09;4.95;;;1.73;;
76021;SDS011;64718;52.124;6.226;2024-03-23T07:39:35;7.25;;;3.05;;
76021;SDS011;64718;52.124;6.226;2024-03-23T07:42:01;3.45;;;1.77;;
76021;SDS011;64718;52.124;6.226;2024-03-23T07:44:27;5.90;;;2.60;;
76021;SDS011;64718;52.124;6.226;2024-03-23T07:46:52;8.45;;;3.00;;
76021;SDS011;64718;52.124;6.226;2024-03-23T07:49:20;8.27;;;3.17;;
76021;SDS011;64718;52.124;6.226;2024-03-23T07:51:45;3.85;;;2.63;;
76021;SDS011;64718;52.124;6.226;2024-03-23T07:54:12;10.02;;;3.28;;
76021;SDS011;64718;52.124;6.226;2024-03-23T07:56:37;9.32;;;2.53;;
76021;SDS011;64718;52.124;6.226;2024-03-23T07:59:03;4.85;;;2.30;;
76021;SDS011;64718;52.124;6.226;2024-03-23T08:01:29;8.13;;;1.42;;
76021;SDS011;64718;52.124;6.226;2024-03-23T08:03:55;4.95;;;2.50;;
76021;SDS011;64718;52.124;6.226;2024-03-23T08:06:22;6.93;;;2.80;;
76021;SDS011;64718;52.124;6.226;2024-03-23T08:08:50;8.55;;;2.10;;
76021;SDS011;64718;52.124;6.226;2024-03-23T08:11:16;8.10;;;2.10;;
76021;SDS011;64718;52.124;6.226;2024-03-23T08:13:44;6.78;;;2.53;;
76021;SDS011;64718;52.124;6.226;2024-03-23T08:16:10;6.15;;;1.60;;
76021;SDS011;64718;52.124;6.226;2024-03-23T08:18:36;5.68;;;2.90;;
76021;SDS011;64718;52.124;6.226;2024-03-23T08:21:02;7.57;;;2.30;;
76021;SDS011;64718;52.124;6.226;2024-03-23T08:23:30;8.18;;;3.17;;
76021;SDS011;64718;52.124;6.226;2024-03-23T08:25:57;6.15;;;2.22;;
76021;SDS011;64718;52.124;6.226;2024-03-23T08:28:23;4.93;;;1.45;;
76021;SDS011;64718;52.124;6.226;2024-03-23T08:30:48;4.75;;;2.38;;
76021;SDS011;64718;52.124;6.226;2024-03-23T08:33:15;4.78;;;2.60;;
76021;SDS011;64718;52.124;6.226;2024-03-23T08:35:40;7.07;;;2.72;;
76021;SDS011;64718;52.124;6.226;2024-03-23T08:38:07;5.63;;;1.60;;
76021;SDS011;64718;52.124;6.226;2024-03-23T08:40:33;4.85;;;2.58;;
76021;SDS011;64718;52.124;6.226;2024-03-23T08:43:00;5.88;;;2.20;;
76021;SDS011;64718;52.124;6.226;2024-03-23T08:45:25;6.50;;;2.45;;
76021;SDS011;64718;52.124;6.226;2024-03-23T08:47:51;4.22;;;2.55;;
76021;SDS011;64718;52.124;6.226;2024-03-23T08:50:17;8.90;;;2.75;;
76021;SDS011;64718;52.124;6.226;2024-03-23T08:52:43;2.10;;;1.48;;
76021;SDS011;64718;52.124;6.226;2024-03-23T08:55:09;5.22;;;2.83;;
76021;SDS011;64718;52.124;6.226;2024-03-23T08:57:37;7.70;;;2.97;;
76021;SDS011;64718;52.124;6.226;2024-03-23T09:00:02;4.20;;;1.88;;
76021;SDS011;64718;52.124;6.226;2024-03-23T09:02:31;5.65;;;2.63;;
76021;SDS011;64718;52.124;6.226;2024-03-23T09:04:56;6.05;;;2.85;;
76021;SDS011;64718;52.124;6.226;2024-03-23T09:07:29;4.07;;;1.80;;
76021;SDS011;64718;52.124;6.226;2024-03-23T09:09:54;5.07;;;1.48;;
76021;SDS011;64718;52.124;6.226;2024-03-23T09:12:20;4.75;;;2.75;;
76021;SDS011;64718;52.124;6.226;2024-03-23T09:14:47;8.35;;;2.85;;
76021;SDS011;64718;52.124;6.226;2024-03-23T09:17:14;2.60;;;1.50;;
76021;SDS011;64718;52.124;6.226;2024-03-23T09:19:39;6.72;;;2.05;;
76021;SDS011;64718;52.124;6.226;2024-03-23T09:22:06;3.22;;;2.22;;
76021;SDS011;64718;52.124;6.226;2024-03-23T09:24:32;2.22;;;1.40;;
76021;SDS011;64718;52.124;6.226;2024-03-23T09:26:58;3.60;;;1.75;;
76021;SDS011;64718;52.124;6.226;2024-03-23T09:29:24;4.10;;;1.65;;
76021;SDS011;64718;52.124;6.226;2024-03-23T09:31:51;6.65;;;2.58;;
76021;SDS011;64718;52.124;6.226;2024-03-23T09:34:17;4.65;;;1.83;;
76021;SDS011;64718;52.124;6.226;2024-03-23T09:36:42;5.37;;;1.87;;
76021;SDS011;64718;52.124;6.226;2024-03-23T09:39:09;3.63;;;2.25;;
76021;SDS011;64718;52.124;6.226;2024-03-23T09:41:34;6.25;;;2.15;;
76021;SDS011;64718;52.124;6.226;2024-03-23T09:44:00;2.25;;;1.48;;
76021;SDS011;64718;52.124;6.226;2024-03-23T09:46:26;2.42;;;1.00;;
76021;SDS011;64718;52.124;6.226;2024-03-23T09:48:54;6.05;;;1.60;;
76021;SDS011;64718;52.124;6.226;2024-03-23T09:51:20;5.00;;;1.55;;
76021;SDS011;64718;52.124;6.226;2024-03-23T09:53:47;1.98;;;1.65;;
76021;SDS011;64718;52.124;6.226;2024-03-23T09:56:13;12.20;;;1.65;;
76021;SDS011;64718;52.124;6.226;2024-03-23T09:58:39;3.15;;;1.13;;
76021;SDS011;64718;52.124;6.226;2024-03-23T10:01:04;3.00;;;1.50;;
76021;SDS011;64718;52.124;6.226;2024-03-23T10:03:31;4.03;;;1.27;;
76021;SDS011;64718;52.124;6.226;2024-03-23T10:06:01;2.25;;;1.65;;
76021;SDS011;64718;52.124;6.226;2024-03-23T10:08:29;5.47;;;1.55;;
76021;SDS011;64718;52.124;6.226;2024-03-23T10:10:54;3.38;;;1.98;;
76021;SDS011;64718;52.124;6.226;2024-03-23T10:13:24;3.60;;;1.67;;
76021;SDS011;64718;52.124;6.226;2024-03-23T10:15:54;4.68;;;1.58;;
76021;SDS011;64718;52.124;6.226;2024-03-23T10:18:21;3.97;;;0.98;;
76021;SDS011;64718;52.124;6.226;2024-03-23T10:20:50;2.97;;;1.45;;
76021;SDS011;64718;52.124;6.226;2024-03-23T10:23:18;4.97;;;1.30;;
76021;SDS011;64718;52.124;6.226;2024-03-23T10:25:43;4.88;;;1.20;;
76021;SDS011;64718;52.124;6.226;2024-03-23T10:28:10;2.05;;;0.20;;
76021;SDS011;64718;52.124;6.226;2024-03-23T10:30:36;2.28;;;0.85;;
76021;SDS011;64718;52.124;6.226;2024-03-23T10:33:09;1.92;;;1.38;;
76021;SDS011;64718;52.124;6.226;2024-03-23T10:35:34;2.55;;;1.40;;
76021;SDS011;64718;52.124;6.226;2024-03-23T10:38:02;2.08;;;1.25;;
76021;SDS011;64718;52.124;6.226;2024-03-23T10:40:29;1.20;;;1.10;;
76021;SDS011;64718;52.124;6.226;2024-03-23T10:42:55;4.45;;;1.70;;
76021;SDS011;64718;52.124;6.226;2024-03-23T10:45:22;3.35;;;1.27;;
76021;SDS011;64718;52.124;6.226;2024-03-23T10:47:49;4.55;;;1.75;;
76021;SDS011;64718;52.124;6.226;2024-03-23T10:50:14;1.48;;;1.13;;
76021;SDS011;64718;52.124;6.226;2024-03-23T10:52:41;4.25;;;1.08;;
76021;SDS011;64718;52.124;6.226;2024-03-23T10:55:07;2.47;;;0.93;;
76021;SDS011;64718;52.124;6.226;2024-03-23T10:57:39;3.28;;;1.27;;
76021;SDS011;64718;52.124;6.226;2024-03-23T11:00:05;2.50;;;1.15;;
76021;SDS011;64718;52.124;6.226;2024-03-23T11:02:32;1.75;;;1.20;;
76021;SDS011;64718;52.124;6.226;2024-03-23T11:04:57;4.97;;;1.25;;
76021;SDS011;64718;52.124;6.226;2024-03-23T11:07:30;3.65;;;1.15;;
76021;SDS011;64718;52.124;6.226;2024-03-23T11:09:56;2.80;;;2.22;;
76021;SDS011;64718;52.124;6.226;2024-03-23T11:12:26;4.10;;;1.30;;
76021;SDS011;64718;52.124;6.226;2024-03-23T11:14:53;4.32;;;1.52;;
76021;SDS011;64718;52.124;6.226;2024-03-23T11:17:20;8.52;;;2.50;;
76021;SDS011;64718;52.124;6.226;2024-03-23T11:19:48;2.67;;;1.52;;
76021;SDS011;64718;52.124;6.226;2024-03-23T11:22:23;2.35;;;1.58;;
76021;SDS011;64718;52.124;6.226;2024-03-23T11:25:02;2.42;;;0.35;;
76021;SDS011;64718;52.124;6.226;2024-03-23T11:27:29;3.10;;;1.20;;
76021;SDS011;64718;52.124;6.226;2024-03-23T11:29:55;4.03;;;1.48;;
76021;SDS011;64718;52.124;6.226;2024-03-23T11:32:35;4.55;;;1.30;;
76021;SDS011;64718;52.124;6.226;2024-03-23T11:35:00;6.63;;;1.45;;
76021;SDS011;64718;52.124;6.226;2024-03-23T11:37:27;5.63;;;1.60;;
76021;SDS011;64718;52.124;6.226;2024-03-23T11:39:52;1.73;;;1.20;;
76021;SDS011;64718;52.124;6.226;2024-03-23T11:42:18;3.72;;;1.42;;
76021;SDS011;64718;52.124;6.226;2024-03-23T11:44:44;3.35;;;1.33;;
76021;SDS011;64718;52.124;6.226;2024-03-23T11:47:13;3.70;;;1.38;;
76021;SDS011;64718;52.124;6.226;2024-03-23T11:49:38;1.17;;;0.60;;
76021;SDS011;64718;52.124;6.226;2024-03-23T11:52:06;0.75;;;0.73;;
76021;SDS011;64718;52.124;6.226;2024-03-23T11:54:31;1.80;;;0.52;;
76021;SDS011;64718;52.124;6.226;2024-03-23T11:56:58;2.92;;;0.80;;
76021;SDS011;64718;52.124;6.226;2024-03-23T11:59:30;0.73;;;0.73;;
76021;SDS011;64718;52.124;6.226;2024-03-23T12:01:56;2.28;;;1.10;;
76021;SDS011;64718;52.124;6.226;2024-03-23T12:04:26;2.08;;;0.88;;
76021;SDS011;64718;52.124;6.226;2024-03-23T12:09:32;1.00;;;1.00;;
76021;SDS011;64718;52.124;6.226;2024-03-23T12:12:02;1.75;;;1.20;;
76021;SDS011;64718;52.124;6.226;2024-03-23T12:14:30;4.05;;;1.40;;
76021;SDS011;64718;52.124;6.226;2024-03-23T12:16:57;4.78;;;1.38;;
76021;SDS011;64718;52.124;6.226;2024-03-23T12:19:33;2.95;;;1.33;;
76021;SDS011;64718;52.124;6.226;2024-03-23T12:21:59;6.30;;;1.67;;
76021;SDS011;64718;52.124;6.226;2024-03-23T12:24:26;2.65;;;1.30;;
76021;SDS011;64718;52.124;6.226;2024-03-23T12:26:52;3.33;;;1.00;;
76021;SDS011;64718;52.124;6.226;2024-03-23T12:29:17;1.90;;;1.60;;
76021;SDS011;64718;52.124;6.226;2024-03-23T12:31:45;2.75;;;1.10;;
76021;SDS011;64718;52.124;6.226;2024-03-23T12:34:10;4.50;;;1.83;;
76021;SDS011;64718;52.124;6.226;2024-03-23T12:36:38;2.80;;;1.23;;
76021;SDS011;64718;52.124;6.226;2024-03-23T12:39:04;3.10;;;0.65;;
76021;SDS011;64718;52.124;6.226;2024-03-23T12:41:30;2.97;;;1.13;;
76021;SDS011;64718;52.124;6.226;2024-03-23T12:43:55;5.63;;;1.65;;
76021;SDS011;64718;52.124;6.226;2024-03-23T12:46:22;4.05;;;1.92;;
76021;SDS011;64718;52.124;6.226;2024-03-23T12:48:48;4.47;;;0.93;;
76021;SDS011;64718;52.124;6.226;2024-03-23T12:51:14;3.33;;;1.58;;
76021;SDS011;64718;52.124;6.226;2024-03-23T12:53:41;4.88;;;1.48;;
76021;SDS011;64718;52.124;6.226;2024-03-23T12:56:08;2.47;;;1.40;;
76021;SDS011;64718;52.124;6.226;2024-03-23T12:58:36;4.20;;;1.20;;
76021;SDS011;64718;52.124;6.226;2024-03-23T13:01:03;3.90;;;1.33;;
76021;SDS011;64718;52.124;6.226;2024-03-23T13:03:28;3.70;;;1.10;;
76021;SDS011;64718;52.124;6.226;2024-03-23T13:05:54;3.75;;;2.10;;
76021;SDS011;64718;52.124;6.226;2024-03-23T13:08:21;3.75;;;1.67;;
76021;SDS011;64718;52.124;6.226;2024-03-23T13:10:51;6.00;;;1.58;;
76021;SDS011;64718;52.124;6.226;2024-03-23T13:13:17;8.68;;;1.58;;
76021;SDS011;64718;52.124;6.226;2024-03-23T13:15:42;2.38;;;0.35;;
76021;SDS011;64718;52.124;6.226;2024-03-23T13:18:09;2.40;;;1.13;;
76021;SDS011;64718;52.124;6.226;2024-03-23T13:20:35;2.65;;;2.22;;
76021;SDS011;64718;52.124;6.226;2024-03-23T13:23:02;1.33;;;1.00;;
76021;SDS011;64718;52.124;6.226;2024-03-23T13:25:27;3.50;;;1.17;;
76021;SDS011;64718;52.124;6.226;2024-03-23T13:27:55;2.88;;;0.93;;
76021;SDS011;64718;52.124;6.226;2024-03-23T13:30:20;3.50;;;1.35;;
76021;SDS011;64718;52.124;6.226;2024-03-23T13:32:47;2.58;;;1.88;;
76021;SDS011;64718;52.124;6.226;2024-03-23T13:35:12;2.85;;;1.13;;
76021;SDS011;64718;52.124;6.226;2024-03-23T13:37:38;5.72;;;1.25;;
76021;SDS011;64718;52.124;6.226;2024-03-23T13:40:04;4.03;;;1.20;;
76021;SDS011;64718;52.124;6.226;2024-03-23T13:42:31;3.58;;;1.15;;
76021;SDS011;64718;52.124;6.226;2024-03-23T13:44:58;5.50;;;1.73;;
76021;SDS011;64718;52.124;6.226;2024-03-23T13:47:25;5.18;;;2.45;;
76021;SDS011;64718;52.124;6.226;2024-03-23T13:49:50;4.43;;;1.58;;
76021;SDS011;64718;52.124;6.226;2024-03-23T13:52:16;5.78;;;1.65;;
76021;SDS011;64718;52.124;6.226;2024-03-23T13:54:43;5.65;;;0.63;;
76021;SDS011;64718;52.124;6.226;2024-03-23T13:57:11;4.05;;;1.50;;
76021;SDS011;64718;52.124;6.226;2024-03-23T13:59:36;2.22;;;0.32;;
76021;SDS011;64718;52.124;6.226;2024-03-23T14:02:04;2.55;;;1.05;;
76021;SDS011;64718;52.124;6.226;2024-03-23T14:04:30;6.80;;;0.95;;
76021;SDS011;64718;52.124;6.226;2024-03-23T14:06:56;4.88;;;1.83;;
76021;SDS011;64718;52.124;6.226;2024-03-23T14:09:21;3.08;;;1.55;;
76021;SDS011;64718;52.124;6.226;2024-03-23T14:11:51;3.72;;;1.35;;
76021;SDS011;64718;52.124;6.226;2024-03-23T14:14:16;5.28;;;1.23;;
76021;SDS011;64718;52.124;6.226;2024-03-23T14:16:43;5.45;;;1.63;;
76021;SDS011;64718;52.124;6.226;2024-03-23T14:19:09;2.97;;;1.38;;
76021;SDS011;64718;52.124;6.226;2024-03-23T14:21:36;3.63;;;0.70;;
76021;SDS011;64718;52.124;6.226;2024-03-23T14:24:01;3.10;;;1.00;;
76021;SDS011;64718;52.124;6.226;2024-03-23T14:26:27;5.18;;;1.58;;
76021;SDS011;64718;52.124;6.226;2024-03-23T14:28:53;0.60;;;0.30;;
76021;SDS011;64718;52.124;6.226;2024-03-23T14:31:19;1.80;;;1.30;;
76021;SDS011;64718;52.124;6.226;2024-03-23T14:33:45;1.33;;;1.23;;
76021;SDS011;64718;52.124;6.226;2024-03-23T14:36:13;1.95;;;1.35;;
76021;SDS011;64718;52.124;6.226;2024-03-23T14:38:39;2.80;;;1.17;;
76021;SDS011;64718;52.124;6.226;2024-03-23T14:41:05;4.38;;;1.40;;
76021;SDS011;64718;52.124;6.226;2024-03-23T14:43:30;2.97;;;1.45;;
76021;SDS011;64718;52.124;6.226;2024-03-23T14:46:07;2.50;;;0.98;;
76021;SDS011;64718;52.124;6.226;2024-03-23T14:50:58;2.90;;;1.05;;
76021;SDS011;64718;52.124;6.226;2024-03-23T14:53:25;2.40;;;1.55;;
76021;SDS011;64718;52.124;6.226;2024-03-23T14:55:55;1.55;;;1.02;;
76021;SDS011;64718;52.124;6.226;2024-03-23T14:58:20;2.05;;;0.70;;
76021;SDS011;64718;52.124;6.226;2024-03-23T15:00:47;2.78;;;1.50;;
76021;SDS011;64718;52.124;6.226;2024-03-23T15:03:13;2.97;;;1.58;;
76021;SDS011;64718;52.124;6.226;2024-03-23T15:05:39;2.85;;;0.80;;
76021;SDS011;64718;52.124;6.226;2024-03-23T15:08:05;2.38;;;1.42;;
76021;SDS011;64718;52.124;6.226;2024-03-23T15:10:33;3.38;;;0.40;;
76021;SDS011;64718;52.124;6.226;2024-03-23T15:12:59;1.48;;;0.85;;
76021;SDS011;64718;52.124;6.226;2024-03-23T15:15:25;3.05;;;1.15;;
76021;SDS011;64718;52.124;6.226;2024-03-23T15:17:51;3.15;;;0.82;;
76021;SDS011;64718;52.124;6.226;2024-03-23T15:20:17;1.95;;;0.93;;
76021;SDS011;64718;52.124;6.226;2024-03-23T15:22:43;1.35;;;0.73;;
76021;SDS011;64718;52.124;6.226;2024-03-23T15:25:09;1.95;;;0.80;;
76021;SDS011;64718;52.124;6.226;2024-03-23T15:27:36;1.63;;;0.85;;
76021;SDS011;64718;52.124;6.226;2024-03-23T15:30:03;5.05;;;1.10;;